| time (UTC) | temp F | wind direction | speed MPH | gust MPH | rain 1hr in | rain 24hr in | rain mn in | humidity % | barometer mb |
| 20260831010353 | 74 | 239 | 0.0 | 0.0 | 0.00 | 0.01 | 0.01 | 88 | 1023.2 |
| 20260831005849 | 74 | 317 | 2.0 | 2.0 | 0.00 | 0.01 | 0.01 | 88 | 1023.3 |
| 20260831005345 | 74 | 229 | 0.0 | 0.0 | 0.07 | 0.01 | 0.01 | 88 | 1023.2 |
| 20260831004839 | 74 | 223 | 0.0 | 0.0 | 0.07 | 0.01 | 0.01 | 88 | 1023.0 |
| 20260831004336 | 74 | 242 | 0.0 | 0.0 | 0.00 | 0.00 | 0.00 | 87 | 1023.2 |
| 20260831003831 | 74 | 218 | 0.0 | 0.0 | 0.00 | 0.00 | 0.00 | 87 | 1023.1 |
| 20260831003327 | 74 | 224 | 0.0 | 0.0 | 0.00 | 0.00 | 0.00 | 86 | 1023.0 |
| 20260831002826 | 75 | 217 | 0.0 | 0.0 | 0.00 | 0.00 | 0.00 | 86 | 1022.8 |
| 20260831002320 | 75 | 276 | 0.0 | 1.0 | 0.00 | 0.00 | 0.00 | 85 | 1022.8 |
| 20260831001816 | 75 | 223 | 0.0 | 0.0 | 0.00 | 0.00 | 0.00 | 84 | 1022.8 |
| 20260831001311 | 75 | 218 | 0.0 | 0.0 | 0.00 | 0.00 | 0.00 | 83 | 1022.9 |
| 20260831000809 | 76 | 211 | 0.0 | 0.0 | 0.00 | 0.00 | 0.00 | 82 | 1022.4 |
| 20260831000310 | 76 | 221 | 0.0 | 0.0 | 0.00 | 0.00 | 0.00 | 81 | 1022.7 |
| 20260830235807 | 76 | 223 | 0.0 | 0.0 | 0.00 | 0.00 | 0.00 | 81 | 1022.4 |
| 20260830235305 | 76 | 216 | 0.0 | 0.0 | 0.00 | 0.00 | 0.00 | 81 | 1022.4 |
| 20260830234757 | 76 | 216 | 0.0 | 0.0 | 0.00 | 0.00 | 0.00 | 80 | 1022.2 |
| 20260830234253 | 76 | 215 | 0.0 | 0.0 | 0.00 | 0.00 | 0.00 | 80 | 1022.2 |
| 20260830233748 | 76 | 218 | 0.0 | 0.0 | 0.00 | 0.00 | 0.00 | 80 | 1022.0 |
| 20260830233244 | 76 | 217 | 0.0 | 0.0 | 0.00 | 0.00 | 0.00 | 80 | 1022.0 |
| 20260830232739 | 77 | 217 | 0.0 | 0.0 | 0.00 | 0.00 | 0.00 | 80 | 1022.1 |
| 20260830232235 | 77 | 212 | 0.0 | 0.0 | 0.00 | 0.00 | 0.00 | 79 | 1021.9 |
| 20260830231731 | 77 | 217 | 0.0 | 0.0 | 0.00 | 0.00 | 0.00 | 79 | 1022.0 |
| 20260830231230 | 77 | 205 | 0.0 | 0.0 | 0.00 | 0.00 | 0.00 | 79 | 1021.9 |
| 20260830230726 | 77 | 186 | 0.0 | 1.0 | 0.00 | 0.00 | 0.00 | 78 | 1022.0 |
| 20260830230221 | 77 | 219 | 0.0 | 0.0 | 0.00 | 0.00 | 0.00 | 78 | 1021.9 |
| 20260830225720 | 77 | 226 | 0.0 | 0.0 | 0.00 | 0.00 | 0.00 | 78 | 1022.1 |
| 20260830225215 | 77 | 216 | 0.0 | 0.0 | 0.00 | 0.00 | 0.00 | 78 | 1022.0 |
| 20260830224714 | 77 | 205 | 1.0 | 2.0 | 0.00 | 0.00 | 0.00 | 78 | 1022.1 |
| 20260830224210 | 77 | 219 | 0.0 | 0.0 | 0.00 | 0.00 | 0.00 | 78 | 1022.1 |
| 20260830223707 | 77 | 223 | 0.0 | 1.0 | 0.00 | 0.00 | 0.00 | 78 | 1022.0 |
| 20260830223202 | 78 | 208 | 0.0 | 0.0 | 0.00 | 0.00 | 0.00 | 78 | 1022.1 |
| 20260830222656 | 78 | 219 | 1.0 | 2.0 | 0.00 | 0.00 | 0.00 | 78 | 1022.1 |
| 20260830222152 | 78 | 222 | 0.0 | 0.0 | 0.00 | 0.00 | 0.00 | 78 | 1022.0 |
| 20260830221647 | 78 | 200 | 0.0 | 0.0 | 0.00 | 0.00 | 0.00 | 78 | 1022.4 |
| 20260830221138 | 78 | 214 | 0.0 | 0.0 | 0.00 | 0.00 | 0.00 | 77 | 1022.3 |
| 20260830220633 | 78 | 220 | 0.0 | 0.0 | 0.00 | 0.00 | 0.00 | 77 | 1022.4 |
| 20260830220132 | 78 | 198 | 0.0 | 0.0 | 0.00 | 0.00 | 0.00 | 78 | 1022.3 |
| 20260830215631 | 78 | 213 | 0.0 | 0.0 | 0.00 | 0.00 | 0.00 | 77 | 1022.7 |
| 20260830215125 | 78 | 219 | 0.0 | 0.0 | 0.00 | 0.00 | 0.00 | 77 | 1022.4 |
| 20260830214620 | 78 | 232 | 1.0 | 2.0 | 0.00 | 0.00 | 0.00 | 76 | 1022.2 |
| 20260830214110 | 78 | 227 | 1.0 | 2.0 | 0.00 | 0.00 | 0.00 | 76 | 1022.2 |
| 20260830213609 | 78 | 229 | 1.0 | 2.0 | 0.00 | 0.00 | 0.00 | 75 | 1022.2 |
| 20260830213105 | 79 | 220 | 0.0 | 0.0 | 0.00 | 0.00 | 0.00 | 74 | 1022.1 |
| 20260830212600 | 79 | 204 | 0.0 | 1.0 | 0.00 | 0.00 | 0.00 | 74 | 1022.2 |
| 20260830212055 | 79 | 211 | 0.0 | 1.0 | 0.00 | 0.00 | 0.00 | 74 | 1022.2 |
| 20260830211550 | 79 | 220 | 0.0 | 0.0 | 0.00 | 0.00 | 0.00 | 74 | 1022.4 |
| 20260830211049 | 80 | 192 | 2.0 | 3.0 | 0.00 | 0.00 | 0.00 | 73 | 1022.3 |
| 20260830210544 | 79 | 230 | 0.0 | 1.0 | 0.00 | 0.00 | 0.00 | 73 | 1022.4 |
| 20260830210038 | 80 | 265 | 3.0 | 4.0 | 0.00 | 0.00 | 0.00 | 72 | 1022.6 |
| 20260830205536 | 79 | 243 | 1.0 | 1.0 | 0.00 | 0.00 | 0.00 | 72 | 1022.4 |
| 20260830205031 | 80 | 263 | 2.0 | 4.0 | 0.00 | 0.00 | 0.00 | 72 | 1022.3 |
| 20260830204530 | 79 | 249 | 2.0 | 2.0 | 0.00 | 0.00 | 0.00 | 72 | 1022.7 |
| 20260830204030 | 79 | 192 | 0.0 | 1.0 | 0.00 | 0.00 | 0.00 | 73 | 1022.6 |
| 20260830203527 | 79 | 233 | 1.0 | 2.0 | 0.00 | 0.00 | 0.00 | 73 | 1023.0 |
| 20260830203021 | 78 | 187 | 0.0 | 1.0 | 0.00 | 0.00 | 0.00 | 73 | 1022.8 |
| 20260830202521 | 79 | 229 | 0.0 | 1.0 | 0.00 | 0.00 | 0.00 | 72 | 1022.9 |
| 20260830202017 | 79 | 198 | 0.0 | 0.0 | 0.00 | 0.00 | 0.00 | 74 | 1023.0 |
| 20260830201516 | 78 | 237 | 4.0 | 6.0 | 0.00 | 0.00 | 0.00 | 74 | 1023.1 |
| 20260830201011 | 78 | 226 | 0.0 | 0.0 | 0.00 | 0.00 | 0.00 | 75 | 1023.0 |
| 20260830200507 | 78 | 228 | 0.0 | 1.0 | 0.00 | 0.00 | 0.00 | 75 | 1022.9 |
| 20260830200006 | 78 | 223 | 2.0 | 2.0 | 0.00 | 0.00 | 0.00 | 75 | 1023.2 |
| 20260830195501 | 77 | 222 | 0.0 | 1.0 | 0.00 | 0.00 | 0.00 | 75 | 1023.1 |
| 20260830194959 | 77 | 217 | 2.0 | 2.0 | 0.00 | 0.00 | 0.00 | 75 | 1023.1 |
| 20260830194458 | 77 | 220 | 1.0 | 2.0 | 0.00 | 0.00 | 0.00 | 75 | 1023.2 |
| 20260830193954 | 77 | 251 | 2.0 | 3.0 | 0.00 | 0.00 | 0.00 | 75 | 1023.4 |
| 20260830193452 | 77 | 243 | 2.0 | 3.0 | 0.00 | 0.00 | 0.00 | 75 | 1023.1 |
| 20260830192948 | 77 | 219 | 0.0 | 1.0 | 0.00 | 0.00 | 0.00 | 75 | 1023.2 |
| 20260830192443 | 77 | 261 | 1.0 | 1.0 | 0.00 | 0.00 | 0.00 | 74 | 1023.3 |
| 20260830191938 | 77 | 271 | 2.0 | 3.0 | 0.00 | 0.00 | 0.00 | 74 | 1023.3 |
| 20260830191438 | 77 | 223 | 1.0 | 1.0 | 0.00 | 0.00 | 0.00 | 74 | 1023.5 |
| 20260830190934 | 77 | 234 | 2.0 | 2.0 | 0.00 | 0.00 | 0.00 | 73 | 1023.5 |
| 20260830190429 | 77 | 207 | 4.0 | 6.0 | 0.00 | 0.00 | 0.00 | 73 | 1023.6 |
| 20260830185928 | 77 | 190 | 4.0 | 6.0 | 0.00 | 0.00 | 0.00 | 73 | 1023.6 |
| 20260830185423 | 78 | 255 | 2.0 | 3.0 | 0.00 | 0.00 | 0.00 | 72 | 1024.0 |
| 20260830184919 | 78 | 220 | 2.0 | 2.0 | 0.00 | 0.00 | 0.00 | 72 | 1024.0 |
| 20260830184417 | 77 | 216 | 0.0 | 0.0 | 0.00 | 0.00 | 0.00 | 73 | 1023.9 |
| 20260830183917 | 78 | 194 | 4.0 | 6.0 | 0.00 | 0.00 | 0.00 | 72 | 1024.0 |
| 20260830183412 | 79 | 268 | 2.0 | 2.0 | 0.00 | 0.00 | 0.00 | 70 | 1024.0 |
| 20260830182908 | 78 | 223 | 1.0 | 1.0 | 0.00 | 0.00 | 0.00 | 70 | 1024.0 |
| 20260830182403 | 78 | 231 | 0.0 | 1.0 | 0.00 | 0.00 | 0.00 | 70 | 1024.0 |
| 20260830181859 | 78 | 227 | 4.0 | 6.0 | 0.00 | 0.00 | 0.00 | 69 | 1024.1 |
| 20260830181354 | 78 | 221 | 3.0 | 6.0 | 0.00 | 0.00 | 0.00 | 69 | 1024.1 |
| 20260830180849 | 78 | 264 | 1.0 | 2.0 | 0.00 | 0.00 | 0.00 | 68 | 1024.4 |
| 20260830180348 | 78 | 182 | 2.0 | 3.0 | 0.00 | 0.00 | 0.00 | 67 | 1024.4 |
| 20260830175848 | 79 | 173 | 3.0 | 3.0 | 0.00 | 0.00 | 0.00 | 66 | 1024.5 |
| 20260830175342 | 80 | 236 | 0.0 | 0.0 | 0.00 | 0.00 | 0.00 | 66 | 1024.3 |
| 20260830174837 | 80 | 149 | 3.0 | 3.0 | 0.00 | 0.00 | 0.00 | 64 | 1024.5 |
| 20260830174333 | 79 | 228 | 0.0 | 0.0 | 0.00 | 0.00 | 0.00 | 66 | 1024.6 |
| 20260830173832 | 78 | 185 | 1.0 | 1.0 | 0.00 | 0.00 | 0.00 | 65 | 1024.6 |
| 20260830173328 | 78 | 204 | 0.0 | 1.0 | 0.00 | 0.00 | 0.00 | 65 | 1024.5 |
| 20260830172824 | 78 | 298 | 3.0 | 3.0 | 0.00 | 0.00 | 0.00 | 65 | 1024.5 |
| 20260830172321 | 79 | 270 | 2.0 | 3.0 | 0.00 | 0.00 | 0.00 | 64 | 1024.6 |
| 20260830171816 | 80 | 230 | 0.0 | 1.0 | 0.00 | 0.00 | 0.00 | 64 | 1024.7 |
| 20260830171312 | 79 | 255 | 2.0 | 2.0 | 0.00 | 0.00 | 0.00 | 63 | 1024.6 |
| 20260830170806 | 79 | 216 | 1.0 | 1.0 | 0.00 | 0.00 | 0.00 | 62 | 1024.6 |
| 20260830170305 | 80 | 205 | 1.0 | 1.0 | 0.00 | 0.00 | 0.00 | 61 | 1024.7 |
| 20260830165759 | 79 | 293 | 2.0 | 3.0 | 0.00 | 0.00 | 0.00 | 65 | 1024.6 |
| 20260830165255 | 78 | 191 | 3.0 | 4.0 | 0.00 | 0.00 | 0.00 | 63 | 1024.5 |
| 20260830164751 | 78 | 225 | 2.0 | 2.0 | 0.00 | 0.00 | 0.00 | 63 | 1024.8 |
| 20260830164247 | 78 | 293 | 2.0 | 3.0 | 0.00 | 0.00 | 0.00 | 62 | 1024.8 |
| 20260830163743 | 79 | 222 | 3.0 | 4.0 | 0.00 | 0.00 | 0.00 | 61 | 1024.8 |
| 20260830163238 | 78 | 205 | 1.0 | 1.0 | 0.00 | 0.00 | 0.00 | 61 | 1024.9 |
| 20260830162732 | 78 | 236 | 4.0 | 6.0 | 0.00 | 0.00 | 0.00 | 59 | 1025.1 |
| 20260830162229 | 79 | 259 | 2.0 | 2.0 | 0.00 | 0.00 | 0.00 | 58 | 1025.0 |
| 20260830161724 | 79 | 171 | 0.0 | 0.0 | 0.00 | 0.00 | 0.00 | 59 | 1025.4 |
| 20260830161218 | 79 | 202 | 1.0 | 2.0 | 0.00 | 0.00 | 0.00 | 57 | 1025.3 |
| 20260830160714 | 78 | 232 | 4.0 | 4.0 | 0.00 | 0.00 | 0.00 | 56 | 1025.2 |
| 20260830160209 | 78 | 200 | 1.0 | 1.0 | 0.00 | 0.00 | 0.00 | 57 | 1025.4 |
| 20260830155706 | 79 | 304 | 2.0 | 3.0 | 0.00 | 0.00 | 0.00 | 56 | 1025.6 |
| 20260830155201 | 80 | 239 | 0.0 | 0.0 | 0.00 | 0.00 | 0.00 | 54 | 1025.4 |
| 20260830154656 | 80 | 263 | 1.0 | 2.0 | 0.00 | 0.00 | 0.00 | 54 | 1025.5 |
| 20260830154152 | 80 | 258 | 2.0 | 3.0 | 0.00 | 0.00 | 0.00 | 53 | 1025.2 |
| 20260830153649 | 80 | 221 | 1.0 | 1.0 | 0.00 | 0.00 | 0.00 | 56 | 1025.5 |
| 20260830153148 | 80 | 182 | 1.0 | 2.0 | 0.00 | 0.00 | 0.00 | 56 | 1025.4 |
| 20260830152647 | 80 | 207 | 0.0 | 1.0 | 0.00 | 0.00 | 0.00 | 54 | 1025.3 |
| 20260830152146 | 79 | 173 | 1.0 | 2.0 | 0.00 | 0.00 | 0.00 | 55 | 1025.6 |
| 20260830151642 | 80 | 241 | 3.0 | 3.0 | 0.00 | 0.00 | 0.00 | 53 | 1025.9 |
| 20260830151141 | 79 | 240 | 2.0 | 2.0 | 0.00 | 0.00 | 0.00 | 54 | 1025.8 |
| 20260830150641 | 78 | 233 | 1.0 | 2.0 | 0.00 | 0.00 | 0.00 | 57 | 1025.9 |
| 20260830150136 | 78 | 248 | 1.0 | 1.0 | 0.00 | 0.00 | 0.00 | 56 | 1026.0 |
| 20260830145635 | 78 | 201 | 2.0 | 3.0 | 0.00 | 0.00 | 0.00 | 55 | 1026.0 |
| 20260830145131 | 78 | 219 | 0.0 | 0.0 | 0.00 | 0.00 | 0.00 | 58 | 1026.1 |
| 20260830144626 | 78 | 208 | 3.0 | 4.0 | 0.00 | 0.00 | 0.00 | 56 | 1026.2 |
| 20260830144122 | 78 | 195 | 0.0 | 0.0 | 0.00 | 0.00 | 0.00 | 61 | 1026.1 |
| 20260830143618 | 77 | 197 | 0.0 | 0.0 | 0.00 | 0.00 | 0.00 | 62 | 1026.3 |
| 20260830143115 | 78 | 243 | 4.0 | 7.0 | 0.00 | 0.00 | 0.00 | 60 | 1026.2 |
| 20260830142611 | 79 | 218 | 0.0 | 0.0 | 0.00 | 0.00 | 0.00 | 62 | 1026.3 |
| 20260830142107 | 77 | 111 | 0.0 | 1.0 | 0.00 | 0.00 | 0.00 | 62 | 1026.3 |
| 20260830141602 | 77 | 226 | 2.0 | 3.0 | 0.00 | 0.00 | 0.00 | 62 | 1026.0 |
| 20260830141057 | 77 | 232 | 0.0 | 1.0 | 0.00 | 0.00 | 0.00 | 62 | 1026.3 |
| 20260830140556 | 77 | 196 | 1.0 | 1.0 | 0.00 | 0.00 | 0.00 | 64 | 1026.4 |
| 20260830140052 | 78 | 212 | 3.0 | 3.0 | 0.00 | 0.00 | 0.00 | 61 | 1026.3 |
| 20260830135547 | 77 | 197 | 0.0 | 0.0 | 0.00 | 0.00 | 0.00 | 62 | 1026.2 |
| 20260830135042 | 77 | 211 | 0.0 | 1.0 | 0.00 | 0.00 | 0.00 | 62 | 1026.5 |
| 20260830134538 | 76 | 219 | 1.0 | 1.0 | 0.00 | 0.00 | 0.00 | 60 | 1026.6 |
| 20260830134033 | 75 | 227 | 2.0 | 2.0 | 0.00 | 0.00 | 0.00 | 62 | 1026.5 |
| 20260830133529 | 75 | 185 | 4.0 | 4.0 | 0.00 | 0.00 | 0.00 | 61 | 1026.6 |
| 20260830133023 | 74 | 231 | 2.0 | 3.0 | 0.00 | 0.00 | 0.00 | 64 | 1026.8 |
| 20260830132514 | 74 | 247 | 2.0 | 3.0 | 0.00 | 0.00 | 0.00 | 64 | 1026.7 |
| 20260830132014 | 73 | 251 | 1.0 | 1.0 | 0.00 | 0.00 | 0.00 | 67 | 1026.8 |
| 20260830131513 | 74 | 235 | 2.0 | 2.0 | 0.00 | 0.00 | 0.00 | 66 | 1026.7 |
| 20260830131008 | 73 | 238 | 1.0 | 1.0 | 0.00 | 0.00 | 0.00 | 67 | 1026.7 |
| 20260830130503 | 73 | 258 | 1.0 | 1.0 | 0.00 | 0.00 | 0.00 | 68 | 1026.7 |
| 20260830130002 | 72 | 211 | 0.0 | 0.0 | 0.00 | 0.00 | 0.00 | 69 | 1026.7 |
| 20260830125457 | 71 | 241 | 2.0 | 3.0 | 0.00 | 0.00 | 0.00 | 69 | 1026.9 |
| 20260830124955 | 71 | 209 | 1.0 | 1.0 | 0.00 | 0.00 | 0.00 | 70 | 1026.9 |
| 20260830124450 | 70 | 230 | 1.0 | 1.0 | 0.00 | 0.00 | 0.00 | 72 | 1026.8 |
| 20260830123947 | 70 | 211 | 0.0 | 0.0 | 0.00 | 0.00 | 0.00 | 72 | 1026.9 |
| 20260830123438 | 70 | 222 | 1.0 | 2.0 | 0.00 | 0.00 | 0.00 | 73 | 1026.8 |
| 20260830122935 | 69 | 214 | 0.0 | 1.0 | 0.00 | 0.00 | 0.00 | 73 | 1027.0 |
| 20260830122434 | 68 | 229 | 0.0 | 1.0 | 0.00 | 0.00 | 0.00 | 75 | 1026.9 |
| 20260830121929 | 67 | 226 | 0.0 | 0.0 | 0.00 | 0.00 | 0.00 | 77 | 1026.8 |
| 20260830121425 | 66 | 220 | 0.0 | 0.0 | 0.00 | 0.00 | 0.00 | 80 | 1026.9 |
| 20260830120920 | 66 | 225 | 0.0 | 0.0 | 0.00 | 0.00 | 0.00 | 81 | 1027.1 |
| 20260830120415 | 65 | 230 | 0.0 | 0.0 | 0.00 | 0.00 | 0.00 | 82 | 1026.9 |
| 20260830115912 | 65 | 235 | 0.0 | 0.0 | 0.00 | 0.00 | 0.00 | 83 | 1027.0 |
| 20260830115408 | 64 | 252 | 0.0 | 0.0 | 0.00 | 0.00 | 0.00 | 85 | 1027.1 |
| 20260830114903 | 63 | 223 | 0.0 | 0.0 | 0.00 | 0.00 | 0.00 | 86 | 1026.9 |
| 20260830114359 | 63 | 224 | 0.0 | 0.0 | 0.00 | 0.00 | 0.00 | 86 | 1027.0 |
| 20260830113859 | 63 | 223 | 0.0 | 0.0 | 0.00 | 0.00 | 0.00 | 87 | 1026.9 |
| 20260830113354 | 62 | 224 | 0.0 | 0.0 | 0.00 | 0.00 | 0.00 | 88 | 1027.1 |
| 20260830112850 | 62 | 224 | 0.0 | 0.0 | 0.00 | 0.00 | 0.00 | 89 | 1026.9 |
| 20260830112345 | 62 | 234 | 0.0 | 0.0 | 0.00 | 0.00 | 0.00 | 89 | 1026.9 |
| 20260830111841 | 61 | 234 | 0.0 | 0.0 | 0.00 | 0.00 | 0.00 | 89 | 1027.0 |
| 20260830111337 | 61 | 234 | 0.0 | 0.0 | 0.00 | 0.00 | 0.00 | 90 | 1027.0 |
| 20260830110837 | 60 | 234 | 0.0 | 0.0 | 0.00 | 0.00 | 0.00 | 90 | 1026.9 |
| 20260830110328 | 60 | 234 | 0.0 | 0.0 | 0.00 | 0.00 | 0.00 | 90 | 1026.9 |
| 20260830105827 | 60 | 234 | 0.0 | 0.0 | 0.00 | 0.00 | 0.00 | 90 | 1027.0 |
| 20260830105324 | 60 | 232 | 0.0 | 0.0 | 0.00 | 0.00 | 0.00 | 90 | 1027.0 |
| 20260830104820 | 60 | 232 | 0.0 | 0.0 | 0.00 | 0.00 | 0.00 | 90 | 1026.9 |
| 20260830104316 | 60 | 232 | 0.0 | 0.0 | 0.00 | 0.00 | 0.00 | 89 | 1026.8 |
| 20260830103815 | 60 | 232 | 0.0 | 0.0 | 0.00 | 0.00 | 0.00 | 89 | 1027.0 |
| 20260830103311 | 60 | 232 | 0.0 | 0.0 | 0.00 | 0.00 | 0.00 | 89 | 1026.7 |
| 20260830102809 | 60 | 232 | 0.0 | 0.0 | 0.00 | 0.00 | 0.00 | 89 | 1026.8 |
| 20260830102307 | 60 | 232 | 0.0 | 0.0 | 0.00 | 0.00 | 0.00 | 89 | 1026.7 |
| 20260830101801 | 60 | 232 | 0.0 | 0.0 | 0.00 | 0.00 | 0.00 | 89 | 1026.9 |
| 20260830101256 | 60 | 231 | 0.0 | 0.0 | 0.00 | 0.00 | 0.00 | 89 | 1026.8 |
| 20260830100754 | 60 | 232 | 0.0 | 0.0 | 0.00 | 0.00 | 0.00 | 88 | 1026.8 |
| 20260830100250 | 61 | 216 | 0.0 | 0.0 | 0.00 | 0.00 | 0.00 | 88 | 1026.9 |
| 20260830095748 | 61 | 234 | 0.0 | 0.0 | 0.00 | 0.00 | 0.00 | 88 | 1026.9 |
| 20260830095244 | 61 | 235 | 0.0 | 0.0 | 0.00 | 0.00 | 0.00 | 88 | 1027.1 |
| 20260830094740 | 60 | 240 | 0.0 | 0.0 | 0.00 | 0.00 | 0.00 | 88 | 1027.1 |
| 20260830094237 | 60 | 234 | 0.0 | 0.0 | 0.00 | 0.00 | 0.00 | 88 | 1027.2 |
| 20260830093736 | 60 | 237 | 0.0 | 0.0 | 0.00 | 0.00 | 0.00 | 88 | 1026.9 |
| 20260830093233 | 60 | 230 | 0.0 | 0.0 | 0.00 | 0.00 | 0.00 | 88 | 1027.0 |
| 20260830092732 | 60 | 230 | 0.0 | 0.0 | 0.00 | 0.00 | 0.00 | 87 | 1027.1 |
| 20260830092229 | 61 | 230 | 0.0 | 0.0 | 0.00 | 0.00 | 0.00 | 87 | 1027.1 |
| 20260830091725 | 61 | 231 | 0.0 | 0.0 | 0.00 | 0.00 | 0.00 | 87 | 1027.0 |
| 20260830091225 | 61 | 230 | 0.0 | 0.0 | 0.00 | 0.00 | 0.00 | 87 | 1026.9 |
| 20260830090724 | 61 | 230 | 0.0 | 0.0 | 0.00 | 0.00 | 0.00 | 86 | 1026.7 |
| 20260830090220 | 61 | 229 | 0.0 | 0.0 | 0.00 | 0.00 | 0.00 | 86 | 1027.0 |
| 20260830085719 | 61 | 229 | 0.0 | 0.0 | 0.00 | 0.00 | 0.00 | 86 | 1026.8 |
| 20260830085215 | 62 | 232 | 0.0 | 0.0 | 0.00 | 0.00 | 0.00 | 85 | 1027.0 |
| 20260830084710 | 62 | 233 | 0.0 | 0.0 | 0.00 | 0.00 | 0.00 | 85 | 1027.0 |
| 20260830084205 | 62 | 235 | 0.0 | 0.0 | 0.00 | 0.00 | 0.00 | 85 | 1027.0 |
| 20260830083700 | 62 | 242 | 0.0 | 1.0 | 0.00 | 0.00 | 0.00 | 85 | 1027.2 |
| 20260830083156 | 62 | 242 | 0.0 | 0.0 | 0.00 | 0.00 | 0.00 | 85 | 1027.0 |
| 20260830082655 | 62 | 248 | 0.0 | 0.0 | 0.00 | 0.00 | 0.00 | 85 | 1027.3 |
| 20260830082151 | 62 | 241 | 0.0 | 0.0 | 0.00 | 0.00 | 0.00 | 85 | 1027.3 |
| 20260830081647 | 62 | 247 | 0.0 | 1.0 | 0.00 | 0.00 | 0.00 | 84 | 1027.3 |
| 20260830081146 | 62 | 233 | 0.0 | 0.0 | 0.00 | 0.00 | 0.00 | 84 | 1027.2 |
| 20260830080641 | 62 | 239 | 0.0 | 1.0 | 0.00 | 0.00 | 0.00 | 84 | 1027.1 |
| 20260830080136 | 62 | 254 | 0.0 | 0.0 | 0.00 | 0.00 | 0.00 | 83 | 1027.2 |
| 20260830075630 | 62 | 237 | 0.0 | 0.0 | 0.00 | 0.00 | 0.00 | 84 | 1027.3 |
| 20260830075126 | 61 | 238 | 0.0 | 0.0 | 0.00 | 0.00 | 0.00 | 84 | 1027.0 |
| 20260830074621 | 61 | 186 | 0.0 | 0.0 | 0.00 | 0.00 | 0.00 | 86 | 1027.2 |
| 20260830074116 | 60 | 240 | 0.0 | 0.0 | 0.00 | 0.00 | 0.00 | 87 | 1027.4 |
| 20260830073613 | 60 | 239 | 0.0 | 0.0 | 0.00 | 0.00 | 0.00 | 88 | 1027.2 |
| 20260830073108 | 60 | 235 | 0.0 | 0.0 | 0.00 | 0.00 | 0.00 | 88 | 1027.2 |
| 20260830072603 | 60 | 243 | 0.0 | 0.0 | 0.00 | 0.00 | 0.00 | 89 | 1027.3 |
| 20260830072057 | 59 | 249 | 0.0 | 0.0 | 0.00 | 0.00 | 0.00 | 89 | 1027.1 |
| 20260830071553 | 59 | 233 | 0.0 | 0.0 | 0.00 | 0.00 | 0.00 | 89 | 1027.0 |
| 20260830071051 | 59 | 235 | 0.0 | 0.0 | 0.00 | 0.00 | 0.00 | 89 | 1027.2 |
| 20260830070546 | 59 | 239 | 0.0 | 0.0 | 0.00 | 0.00 | 0.00 | 90 | 1027.3 |
| 20260830070041 | 59 | 245 | 1.0 | 1.0 | 0.00 | 0.00 | 0.00 | 90 | 1027.3 |
| 20260830065540 | 59 | 234 | 0.0 | 0.0 | 0.00 | 0.00 | 0.00 | 90 | 1027.1 |
| 20260830065038 | 59 | 230 | 0.0 | 0.0 | 0.00 | 0.00 | 0.00 | 90 | 1027.2 |
| 20260830064533 | 59 | 232 | 0.0 | 0.0 | 0.00 | 0.00 | 0.00 | 90 | 1027.2 |
| 20260830064028 | 59 | 241 | 0.0 | 0.0 | 0.00 | 0.00 | 0.00 | 90 | 1027.1 |
| 20260830063527 | 59 | 227 | 0.0 | 0.0 | 0.00 | 0.00 | 0.00 | 90 | 1027.3 |
| 20260830063021 | 59 | 231 | 0.0 | 0.0 | 0.00 | 0.00 | 0.00 | 90 | 1027.1 |
| 20260830062520 | 59 | 230 | 0.0 | 0.0 | 0.00 | 0.00 | 0.00 | 90 | 1027.4 |
| 20260830062015 | 59 | 225 | 0.0 | 0.0 | 0.00 | 0.00 | 0.00 | 90 | 1027.1 |
| 20260830061510 | 59 | 226 | 0.0 | 0.0 | 0.00 | 0.00 | 0.00 | 90 | 1027.1 |
| 20260830061007 | 59 | 230 | 0.0 | 0.0 | 0.00 | 0.00 | 0.00 | 90 | 1027.3 |
| 20260830060503 | 59 | 215 | 0.0 | 0.0 | 0.00 | 0.00 | 0.00 | 90 | 1027.3 |
| 20260830055958 | 59 | 234 | 0.0 | 0.0 | 0.00 | 0.00 | 0.00 | 90 | 1027.2 |
| 20260830055454 | 59 | 240 | 0.0 | 0.0 | 0.00 | 0.00 | 0.00 | 91 | 1027.2 |
| 20260830054949 | 59 | 234 | 0.0 | 0.0 | 0.00 | 0.00 | 0.00 | 91 | 1027.2 |
| 20260830054445 | 59 | 231 | 0.0 | 0.0 | 0.00 | 0.00 | 0.00 | 91 | 1027.2 |
| 20260830053941 | 59 | 232 | 0.0 | 0.0 | 0.00 | 0.00 | 0.00 | 91 | 1027.1 |
| 20260830053436 | 59 | 226 | 0.0 | 0.0 | 0.00 | 0.00 | 0.00 | 91 | 1026.8 |
| 20260830052935 | 59 | 226 | 0.0 | 0.0 | 0.00 | 0.00 | 0.00 | 91 | 1027.0 |
| 20260830052431 | 59 | 226 | 0.0 | 0.0 | 0.00 | 0.00 | 0.00 | 91 | 1027.0 |
| 20260830051926 | 59 | 226 | 0.0 | 0.0 | 0.00 | 0.00 | 0.00 | 91 | 1027.1 |
| 20260830051421 | 59 | 222 | 0.0 | 0.0 | 0.00 | 0.00 | 0.00 | 91 | 1027.0 |
| 20260830050920 | 59 | 222 | 0.0 | 0.0 | 0.00 | 0.00 | 0.00 | 90 | 1027.1 |
| 20260830050416 | 59 | 222 | 0.0 | 0.0 | 0.00 | 0.00 | 0.00 | 91 | 1027.1 |
| 20260830045914 | 59 | 223 | 0.0 | 0.0 | 0.00 | 0.00 | 0.00 | 90 | 1027.2 |
| 20260830045409 | 59 | 223 | 0.0 | 0.0 | 0.00 | 0.00 | 0.00 | 90 | 1027.2 |
| 20260830044908 | 59 | 222 | 0.0 | 0.0 | 0.00 | 0.00 | 0.00 | 90 | 1027.0 |
| 20260830044404 | 59 | 222 | 0.0 | 0.0 | 0.00 | 0.00 | 0.00 | 90 | 1027.0 |
| 20260830043858 | 59 | 221 | 0.0 | 0.0 | 0.00 | 0.00 | 0.00 | 90 | 1027.1 |
| 20260830043353 | 59 | 221 | 0.0 | 0.0 | 0.00 | 0.00 | 0.00 | 90 | 1027.1 |
| 20260830042850 | 59 | 224 | 0.0 | 0.0 | 0.00 | 0.00 | 0.00 | 90 | 1026.8 |
| 20260830042345 | 59 | 224 | 0.0 | 0.0 | 0.00 | 0.00 | 0.00 | 90 | 1026.9 |
| 20260830041844 | 60 | 225 | 0.0 | 0.0 | 0.00 | 0.00 | 0.00 | 90 | 1027.2 |
| 20260830041338 | 59 | 228 | 0.0 | 0.0 | 0.00 | 0.00 | 0.00 | 90 | 1027.1 |
| 20260830040833 | 59 | 226 | 0.0 | 0.0 | 0.00 | 0.00 | 0.00 | 90 | 1027.0 |
| 20260830040329 | 59 | 231 | 0.0 | 0.0 | 0.00 | 0.00 | 0.00 | 90 | 1026.9 |
| 20260830035828 | 59 | 239 | 0.0 | 0.0 | 0.00 | 0.00 | 0.00 | 90 | 1027.1 |
| 20260830035327 | 59 | 221 | 0.0 | 0.0 | 0.00 | 0.00 | 0.00 | 90 | 1027.1 |
| 20260830034823 | 59 | 222 | 0.0 | 0.0 | 0.00 | 0.00 | 0.00 | 90 | 1026.9 |
| 20260830034318 | 59 | 224 | 0.0 | 0.0 | 0.00 | 0.00 | 0.00 | 90 | 1027.0 |
| 20260830033814 | 59 | 224 | 0.0 | 0.0 | 0.00 | 0.00 | 0.00 | 90 | 1027.1 |
| 20260830033313 | 59 | 220 | 0.0 | 0.0 | 0.00 | 0.00 | 0.00 | 90 | 1027.1 |
| 20260830032808 | 59 | 220 | 0.0 | 0.0 | 0.00 | 0.00 | 0.00 | 89 | 1027.0 |
| 20260830032305 | 59 | 220 | 0.0 | 0.0 | 0.00 | 0.00 | 0.00 | 89 | 1027.0 |
| 20260830031758 | 60 | 228 | 0.0 | 0.0 | 0.00 | 0.00 | 0.00 | 89 | 1027.0 |
| 20260830031253 | 59 | 224 | 0.0 | 0.0 | 0.00 | 0.00 | 0.00 | 89 | 1026.9 |
| 20260830030749 | 60 | 226 | 0.0 | 0.0 | 0.00 | 0.00 | 0.00 | 89 | 1027.0 |
| 20260830030245 | 60 | 224 | 0.0 | 0.0 | 0.00 | 0.00 | 0.00 | 89 | 1027.0 |
| 20260830025744 | 60 | 224 | 0.0 | 0.0 | 0.00 | 0.00 | 0.00 | 88 | 1027.1 |
| 20260830025243 | 60 | 224 | 0.0 | 0.0 | 0.00 | 0.00 | 0.00 | 88 | 1027.0 |
| 20260830024743 | 60 | 224 | 0.0 | 0.0 | 0.00 | 0.00 | 0.00 | 88 | 1027.0 |
| 20260830024238 | 60 | 223 | 0.0 | 0.0 | 0.00 | 0.00 | 0.00 | 87 | 1027.0 |
| 20260830023735 | 60 | 224 | 0.0 | 0.0 | 0.00 | 0.00 | 0.00 | 87 | 1027.1 |
| 20260830023229 | 60 | 224 | 0.0 | 0.0 | 0.00 | 0.00 | 0.00 | 87 | 1027.0 |
| 20260830022728 | 61 | 220 | 0.0 | 0.0 | 0.00 | 0.00 | 0.00 | 86 | 1027.0 |
| 20260830022224 | 61 | 225 | 0.0 | 0.0 | 0.00 | 0.00 | 0.00 | 86 | 1027.0 |
| 20260830021718 | 61 | 221 | 0.0 | 0.0 | 0.00 | 0.00 | 0.00 | 86 | 1027.1 |
| 20260830021214 | 61 | 224 | 0.0 | 0.0 | 0.00 | 0.00 | 0.00 | 85 | 1027.0 |
| 20260830020713 | 61 | 223 | 0.0 | 0.0 | 0.00 | 0.00 | 0.00 | 85 | 1027.0 |
| 20260830020208 | 61 | 223 | 0.0 | 0.0 | 0.00 | 0.00 | 0.00 | 85 | 1027.0 |
| 20260830015707 | 62 | 215 | 0.0 | 0.0 | 0.00 | 0.00 | 0.00 | 85 | 1027.1 |
| 20260830015204 | 62 | 226 | 0.0 | 0.0 | 0.00 | 0.00 | 0.00 | 85 | 1027.1 |
| 20260830014658 | 62 | 233 | 0.0 | 0.0 | 0.00 | 0.00 | 0.00 | 84 | 1027.2 |
| 20260830014154 | 62 | 225 | 0.0 | 0.0 | 0.00 | 0.00 | 0.00 | 83 | 1027.0 |
| 20260830013649 | 62 | 225 | 0.0 | 0.0 | 0.00 | 0.00 | 0.00 | 83 | 1027.1 |
| 20260830013145 | 62 | 226 | 0.0 | 0.0 | 0.00 | 0.00 | 0.00 | 83 | 1027.0 |
| 20260830012645 | 62 | 226 | 0.0 | 0.0 | 0.00 | 0.00 | 0.00 | 83 | 1027.0 |
| 20260830012142 | 62 | 222 | 0.0 | 0.0 | 0.00 | 0.00 | 0.00 | 83 | 1026.8 |
| 20260830011641 | 62 | 223 | 0.0 | 0.0 | 0.00 | 0.00 | 0.00 | 82 | 1026.8 |
| 20260830011137 | 63 | 216 | 0.0 | 0.0 | 0.00 | 0.00 | 0.00 | 81 | 1026.6 |
| 20260830010632 | 63 | 223 | 0.0 | 0.0 | 0.00 | 0.00 | 0.00 | 80 | 1026.6 |